Time;durP1;ratioP1;P1;durP2;ratioP2;P2;SDS_P1;SDS_P2;PMS_P1;PMS_P2;Temp;Humidity;BMP_temperature;BMP_pressure;BME280_temperature;BME280_humidity;BME280_pressure;Samples;Min_cycle;Max_cycle;Signal;HPM_P1;HPM_P2
2022/04/09 00:00:43;;;;;;;7.23;5.57;;;2.90;99.90;;;3.49;100.00;96776.47;4981774;28;20525;-74
2022/04/09 00:03:12;;;;;;;11.93;6.70;;;2.80;99.90;;;3.51;100.00;96779.69;4982721;28;20471;-74
2022/04/09 00:05:41;;;;;;;12.90;6.00;;;2.80;99.90;;;3.52;100.00;96791.63;4981578;28;20659;-74
2022/04/09 00:08:09;;;;;;;13.07;6.53;;;2.80;99.90;;;3.53;100.00;96787.28;4980359;28;20510;-74
2022/04/09 00:10:39;;;;;;;12.50;6.33;;;2.80;99.90;;;3.52;100.00;96801.16;4978979;28;20498;-74
2022/04/09 00:13:08;;;;;;;14.53;7.60;;;2.80;99.90;;;3.48;100.00;96807.66;4979831;28;20492;-74
2022/04/09 00:15:36;;;;;;;7.83;5.77;;;2.80;99.90;;;3.48;100.00;96816.22;4980473;28;20496;-74
2022/04/09 00:18:06;;;;;;;9.50;6.23;;;2.70;99.90;;;3.45;100.00;96826.91;4979740;28;20503;-74
2022/04/09 00:20:34;;;;;;;9.90;7.27;;;2.60;99.90;;;3.46;100.00;96828.50;4979471;28;20476;-74
2022/04/09 00:23:03;;;;;;;7.17;5.73;;;2.70;99.90;;;3.47;100.00;96845.59;4980731;28;20530;-74
2022/04/09 00:25:31;;;;;;;8.57;6.03;;;2.70;99.90;;;3.45;100.00;96842.41;4982473;28;20444;-74
2022/04/09 00:28:01;;;;;;;9.60;6.13;;;2.70;99.90;;;3.44;100.00;96855.47;4982208;28;20467;-74
2022/04/09 00:30:30;;;;;;;15.20;5.90;;;2.80;99.90;;;3.46;100.00;96863.88;4982285;28;20496;-74
2022/04/09 00:32:58;;;;;;;5.37;4.83;;;2.70;99.90;;;3.47;100.00;96866.28;4982296;28;20889;-74
2022/04/09 00:35:27;;;;;;;10.07;5.50;;;2.70;99.90;;;3.49;100.00;96879.03;4982570;28;20494;-74
2022/04/09 00:37:56;;;;;;;11.70;5.60;;;2.80;99.90;;;3.47;100.00;96879.19;4983444;28;20466;-74
2022/04/09 00:40:27;;;;;;;5.80;4.97;;;2.70;99.90;;;3.48;100.00;96893.72;4983158;28;20547;-74
2022/04/09 00:42:56;;;;;;;8.17;5.13;;;2.70;99.90;;;3.48;100.00;96898.91;4982619;28;20958;-74
2022/04/09 00:45:27;;;;;;;7.07;5.60;;;2.70;99.90;;;3.48;100.00;96909.22;4978875;28;20496;-74
2022/04/09 00:47:56;;;;;;;7.90;5.20;;;2.70;99.90;;;3.49;100.00;96913.44;4977754;28;20459;-74
2022/04/09 00:50:27;;;;;;;7.60;5.73;;;2.70;99.90;;;3.47;100.00;96915.38;4977400;28;20503;-74
2022/04/09 00:53:02;;;;;;;11.80;5.50;;;2.70;99.90;;;3.49;100.00;96922.97;4978936;28;20457;-74
2022/04/09 00:58:21;;;;;;;5.70;4.90;;;2.70;99.90;;;3.50;100.00;96943.47;4978476;28;20467;-74
2022/04/09 01:00:51;;;;;;;7.37;4.57;;;2.80;99.90;;;3.50;100.00;96945.25;4980281;28;20896;-74
2022/04/09 01:03:21;;;;;;;7.37;5.40;;;2.80;99.90;;;3.47;100.00;96948.94;4979633;28;20504;-74
2022/04/09 01:05:52;;;;;;;7.33;5.30;;;2.80;99.90;;;3.47;100.00;96951.53;4977542;28;20464;-74
2022/04/09 01:08:22;;;;;;;8.93;5.80;;;2.80;99.90;;;3.47;100.00;96959.28;4980572;28;20908;-74
2022/04/09 01:10:52;;;;;;;11.10;6.13;;;2.70;99.90;;;3.46;100.00;96970.63;4977801;28;21076;-74
2022/04/09 01:13:22;;;;;;;7.17;4.83;;;2.70;99.90;;;3.45;100.00;96971.59;4979747;28;21051;-74
2022/04/09 01:15:55;;;;;;;8.93;5.43;;;2.70;99.90;;;3.45;100.00;96976.75;4978700;28;20499;-75
2022/04/09 01:18:25;;;;;;;7.67;5.23;;;2.70;99.90;;;3.45;100.00;96981.13;4980778;28;20466;-74
2022/04/09 01:20:59;;;;;;;8.47;5.67;;;2.70;99.90;;;3.44;100.00;96995.81;4977828;28;20496;-74
2022/04/09 01:23:31;;;;;;;7.83;4.77;;;2.70;99.90;;;3.43;100.00;96993.41;4980278;28;20502;-74
2022/04/09 01:26:05;;;;;;;9.30;5.77;;;2.60;99.90;;;3.37;100.00;97007.78;4981480;28;20464;-74
2022/04/09 01:28:35;;;;;;;8.70;5.33;;;2.50;99.90;;;3.39;100.00;97007.63;4978688;28;20467;-74
2022/04/09 01:31:05;;;;;;;8.63;5.80;;;2.70;99.90;;;3.38;100.00;97018.94;4980970;28;20497;-75
2022/04/09 01:33:35;;;;;;;9.27;5.60;;;2.60;99.90;;;3.38;100.00;97022.31;4979481;28;20473;-74
2022/04/09 01:36:04;;;;;;;11.30;5.20;;;2.70;99.90;;;3.39;100.00;97023.13;4978225;28;20529;-74
2022/04/09 01:38:35;;;;;;;6.50;4.90;;;2.70;99.90;;;3.40;100.00;97027.34;4980737;28;21141;-74
2022/04/09 01:41:07;;;;;;;9.63;5.63;;;2.60;99.90;;;3.39;100.00;97033.47;4978496;28;20578;-74
2022/04/09 01:43:38;;;;;;;10.13;4.90;;;2.50;99.90;;;3.37;100.00;97048.31;4978340;28;20518;-74
2022/04/09 01:46:08;;;;;;;8.43;5.17;;;2.60;99.90;;;3.35;100.00;97053.66;4978480;28;20489;-74
2022/04/09 01:48:37;;;;;;;8.33;4.87;;;2.70;99.90;;;3.34;100.00;97056.41;4980560;28;20474;-74
2022/04/09 01:51:06;;;;;;;11.30;5.30;;;2.70;99.90;;;3.32;100.00;97059.16;4979367;28;20501;-75
2022/04/09 01:53:38;;;;;;;7.07;5.20;;;2.60;99.90;;;3.30;100.00;97070.59;4978475;28;20889;-74
2022/04/09 01:56:07;;;;;;;9.27;5.10;;;2.70;99.90;;;3.30;100.00;97079.16;4978849;28;20461;-74
2022/04/09 01:58:37;;;;;;;7.07;4.50;;;2.60;99.90;;;3.29;100.00;97075.00;4978432;28;20469;-74
2022/04/09 02:01:07;;;;;;;7.93;5.47;;;2.50;99.90;;;3.30;100.00;97086.91;4978991;28;21243;-74
2022/04/09 02:03:37;;;;;;;5.83;4.53;;;2.50;99.90;;;3.27;100.00;97092.41;4978185;28;20562;-74
2022/04/09 02:06:06;;;;;;;7.23;5.03;;;2.40;99.90;;;3.21;100.00;97098.25;4977222;28;21036;-74
2022/04/09 02:08:37;;;;;;;6.87;4.70;;;2.30;99.90;;;3.19;100.00;97105.38;4978653;28;20503;-74
2022/04/09 02:11:07;;;;;;;9.67;4.67;;;2.40;99.90;;;3.18;100.00;97108.09;4980592;28;21084;-75
2022/04/09 02:13:36;;;;;;;6.73;4.87;;;2.40;99.90;;;3.16;100.00;97110.06;4978926;28;20489;-75
2022/04/09 02:16:07;;;;;;;7.43;5.13;;;2.50;99.90;;;3.16;100.00;97116.00;4978866;28;20475;-74
2022/04/09 02:18:37;;;;;;;5.90;4.67;;;2.40;99.90;;;3.14;100.00;97127.47;4975736;28;20471;-74
2022/04/09 02:21:08;;;;;;;5.00;3.90;;;2.30;99.90;;;3.10;100.00;97134.75;4976397;28;20457;-74
2022/04/09 02:23:39;;;;;;;5.30;4.30;;;2.30;99.90;;;3.07;100.00;97145.41;4977714;28;20456;-74
2022/04/09 02:26:09;;;;;;;7.30;4.17;;;2.30;99.90;;;3.03;100.00;97147.50;4975824;28;20466;-74
2022/04/09 02:28:39;;;;;;;8.83;4.93;;;2.30;99.90;;;3.02;100.00;97147.66;4978557;28;20977;-75
2022/04/09 02:31:10;;;;;;;7.67;4.13;;;2.30;99.90;;;3.02;100.00;97157.97;4982853;28;20521;-74
2022/04/09 02:33:40;;;;;;;5.17;4.00;;;2.20;99.90;;;3.01;100.00;97174.44;4978479;28;20476;-75
2022/04/09 02:36:12;;;;;;;5.40;3.93;;;2.20;99.90;;;3.00;100.00;97172.84;4978190;28;21006;-74
2022/04/09 02:38:43;;;;;;;6.30;4.67;;;2.20;99.90;;;2.98;100.00;97179.94;4978651;28;20460;-75
2022/04/09 02:41:13;;;;;;;4.13;3.23;;;2.10;99.90;;;2.90;100.00;97188.50;4979664;28;20496;-74
2022/04/09 02:43:46;;;;;;;8.53;3.90;;;2.20;99.90;;;2.90;100.00;97188.50;4977556;28;20951;-74
2022/04/09 02:46:16;;;;;;;7.80;4.20;;;2.10;99.90;;;2.89;100.00;97191.22;4978286;28;20462;-75
2022/04/09 02:48:45;;;;;;;7.40;4.30;;;2.20;99.90;;;2.88;100.00;97195.56;4977374;28;20460;-75
2022/04/09 02:51:15;;;;;;;6.70;4.00;;;2.10;99.90;;;2.88;100.00;97198.16;4976982;28;20503;-75
2022/04/09 02:53:46;;;;;;;4.90;3.97;;;2.10;99.90;;;2.89;100.00;97209.28;4978906;28;20469;-75
2022/04/09 02:56:15;;;;;;;7.07;4.80;;;2.10;99.90;;;2.85;100.00;97220.88;4980927;28;20474;-74
2022/04/09 02:58:44;;;;;;;5.80;4.50;;;2.00;99.90;;;2.83;100.00;97217.66;4977942;28;20481;-75
2022/04/09 03:01:14;;;;;;;12.10;4.60;;;2.10;99.90;;;2.83;100.00;97217.66;4978098;28;20464;-74
2022/04/09 03:03:44;;;;;;;6.97;3.83;;;2.10;99.90;;;2.82;100.00;97221.22;4979106;28;20470;-75
2022/04/09 03:06:15;;;;;;;4.60;3.90;;;2.00;99.90;;;2.81;100.00;97229.94;4978562;28;20963;-74
2022/04/09 03:08:46;;;;;;;7.07;4.00;;;2.10;99.90;;;2.79;100.00;97232.66;4979303;28;20505;-74
2022/04/09 03:11:18;;;;;;;5.70;3.70;;;2.00;99.90;;;2.81;100.00;97240.28;4979217;28;20865;-79
2022/04/09 03:13:48;;;;;;;5.83;4.33;;;2.00;99.90;;;2.78;100.00;97241.38;4978024;28;20918;-74
2022/04/09 03:16:16;;;;;;;7.10;4.57;;;2.00;99.90;;;2.79;100.00;97247.34;4977742;28;20474;-74
2022/04/09 03:18:46;;;;;;;5.13;4.53;;;1.90;99.90;;;2.79;100.00;97245.56;4975679;28;20465;-74
2022/04/09 03:21:16;;;;;;;7.10;4.37;;;1.90;99.90;;;2.78;100.00;97248.31;4977939;28;20477;-74
2022/04/09 03:23:47;;;;;;;4.60;4.10;;;2.00;99.90;;;2.75;100.00;97256.38;4977856;28;20516;-82
2022/04/09 03:26:18;;;;;;;5.80;4.53;;;1.90;99.90;;;2.74;100.00;97273.63;4977865;28;20466;-74
2022/04/09 03:28:48;;;;;;;5.10;3.73;;;2.00;99.90;;;2.74;100.00;97265.09;4979990;28;20497;-74
2022/04/09 03:31:18;;;;;;;6.43;3.70;;;2.00;99.90;;;2.72;100.00;97277.31;4978541;28;21009;-74
2022/04/09 03:33:51;;;;;;;8.97;3.80;;;2.00;99.90;;;2.71;100.00;97275.75;4980877;28;20459;-74
2022/04/09 03:36:21;;;;;;;5.07;3.90;;;2.00;99.90;;;2.67;100.00;97284.75;4978218;28;20498;-74
2022/04/09 03:38:53;;;;;;;5.40;3.73;;;2.10;99.90;;;2.68;100.00;97283.75;4977621;28;20522;-74
2022/04/09 03:41:23;;;;;;;5.30;4.10;;;1.90;99.90;;;2.69;100.00;97298.28;4980202;28;20520;-74
2022/04/09 03:43:53;;;;;;;6.57;4.10;;;1.90;99.90;;;2.70;100.00;97299.91;4980461;28;20558;-74
2022/04/09 03:46:25;;;;;;;5.47;4.20;;;1.90;99.90;;;2.70;100.00;97310.25;4984432;28;20472;-74
2022/04/09 03:48:55;;;;;;;7.43;3.50;;;1.90;99.90;;;2.72;100.00;97310.88;4982247;28;21001;-74
2022/04/09 03:51:25;;;;;;;9.50;3.50;;;1.90;99.90;;;2.73;100.00;97317.66;4982693;28;20497;-74
2022/04/09 03:53:55;;;;;;;10.30;4.30;;;1.90;99.90;;;2.74;100.00;97319.28;4983273;28;20473;-74
2022/04/09 03:56:25;;;;;;;4.43;3.90;;;1.90;99.90;;;2.76;100.00;97335.41;4985131;28;20453;-74
2022/04/09 03:58:54;;;;;;;5.27;3.77;;;1.90;99.90;;;2.76;100.00;97333.66;4981320;28;20931;-74
2022/04/09 04:01:24;;;;;;;7.10;4.33;;;1.90;99.90;;;2.77;100.00;97334.47;4979856;28;20975;-74
2022/04/09 04:03:55;;;;;;;7.93;4.20;;;2.00;99.90;;;2.78;100.00;97348.97;4983676;28;20503;-74
2022/04/09 04:06:25;;;;;;;15.67;4.90;;;2.00;99.90;;;2.77;100.00;97352.53;4984661;28;20563;-79
2022/04/09 04:08:57;;;;;;;7.40;4.33;;;2.00;99.90;;;2.78;100.00;97360.09;4982391;28;21256;-74
2022/04/09 04:11:26;;;;;;;6.97;3.57;;;2.00;99.90;;;2.79;100.00;97364.31;4982593;28;20554;-75
2022/04/09 04:13:57;;;;;;;7.63;3.60;;;2.00;99.90;;;2.79;100.00;97360.91;4979315;28;20440;-81
2022/04/09 04:16:26;;;;;;;8.40;4.87;;;2.00;99.90;;;2.78;100.00;97369.63;4977704;28;20457;-74
2022/04/09 04:18:56;;;;;;;9.73;5.27;;;2.00;99.90;;;2.75;100.00;97359.59;4979494;28;20449;-74
2022/04/09 04:21:27;;;;;;;6.20;4.40;;;2.00;99.90;;;2.74;100.00;97373.50;4982127;28;20503;-75
2022/04/09 04:23:57;;;;;;;6.10;4.60;;;2.00;99.90;;;2.73;100.00;97384.78;4982363;28;20524;-74
2022/04/09 04:26:28;;;;;;;9.27;4.40;;;1.90;99.90;;;2.70;100.00;97388.47;4981791;28;20454;-74
2022/04/09 04:28:58;;;;;;;8.37;4.33;;;1.80;99.90;;;2.65;100.00;97390.69;4984213;28;20473;-75
2022/04/09 04:31:27;;;;;;;4.90;3.50;;;1.90;99.90;;;2.61;100.00;97398.88;4984361;28;20514;-75
2022/04/09 04:33:57;;;;;;;13.70;3.70;;;1.80;99.90;;;2.57;100.00;97400.97;4983502;28;20468;-74
2022/04/09 04:36:27;;;;;;;7.93;3.50;;;1.90;99.90;;;2.52;100.00;97401.44;4983547;28;20949;-75
2022/04/09 04:38:59;;;;;;;11.80;3.40;;;1.80;99.90;;;2.52;100.00;97411.78;4983567;28;20469;-75
2022/04/09 04:41:28;;;;;;;8.20;3.93;;;1.70;99.90;;;2.56;100.00;97424.34;4981485;28;20553;-75
2022/04/09 04:44:00;;;;;;;6.13;3.17;;;1.90;99.90;;;2.54;100.00;97422.72;4980627;28;20450;-75
2022/04/09 04:46:30;;;;;;;4.77;3.20;;;1.90;99.90;;;2.52;100.00;97429.81;4981816;28;20544;-75
2022/04/09 04:49:00;;;;;;;11.17;3.00;;;1.80;99.90;;;2.50;100.00;97436.91;4981497;28;20456;-75
2022/04/09 04:51:29;;;;;;;3.80;3.03;;;1.90;99.90;;;2.50;100.00;97444.63;4983584;28;20857;-75
2022/04/09 04:54:03;;;;;;;6.30;3.10;;;1.80;99.90;;;2.54;100.00;97443.38;4984025;28;20444;-75
2022/04/09 04:56:32;;;;;;;7.90;3.73;;;1.90;99.90;;;2.58;100.00;97451.63;4984721;28;20495;-75
2022/04/09 04:59:01;;;;;;;8.93;4.00;;;1.80;99.90;;;2.62;100.00;97454.72;4983319;28;20458;-75
2022/04/09 05:01:32;;;;;;;6.47;3.20;;;1.90;99.90;;;2.66;100.00;97456.03;4983037;28;20485;-75
2022/04/09 05:04:02;;;;;;;13.53;3.00;;;2.00;99.90;;;2.69;100.00;97458.31;4982274;28;20485;-75
2022/04/09 05:06:32;;;;;;;6.43;3.43;;;1.90;99.90;;;2.72;100.00;97463.16;4982643;28;20454;-75
2022/04/09 05:09:05;;;;;;;6.20;3.07;;;2.00;99.90;;;2.75;100.00;97470.59;4984183;28;20445;-75
2022/04/09 05:11:34;;;;;;;7.40;3.83;;;2.00;99.90;;;2.78;100.00;97475.44;4982870;28;20496;-75
2022/04/09 05:14:05;;;;;;;7.17;4.10;;;2.00;99.90;;;2.79;100.00;97483.06;4982040;28;20497;-75
2022/04/09 05:16:35;;;;;;;14.57;3.53;;;2.10;99.90;;;2.81;100.00;97481.13;4982575;28;20490;-75
2022/04/09 05:19:06;;;;;;;12.40;4.27;;;2.10;99.90;;;2.84;100.00;97492.94;4981438;28;20536;-74
2022/04/09 05:21:37;;;;;;;4.53;3.20;;;2.20;99.90;;;2.85;100.00;97497.09;4980510;28;20619;-75
2022/04/09 05:24:08;;;;;;;7.03;3.47;;;2.20;99.90;;;2.87;100.00;97502.94;4981294;28;21313;-76
2022/04/09 05:26:38;;;;;;;6.50;2.83;;;2.20;99.90;;;2.90;100.00;97505.22;4981102;28;20441;-75
2022/04/09 05:29:09;;;;;;;13.80;3.50;;;2.20;99.90;;;2.92;100.00;97500.69;4981588;28;20472;-75
2022/04/09 05:31:41;;;;;;;7.23;3.70;;;2.20;99.90;;;2.95;100.00;97506.38;4980811;28;20492;-75
2022/04/09 05:34:11;;;;;;;8.87;3.90;;;2.20;99.90;;;2.97;100.00;97509.63;4980717;28;20441;-75
2022/04/09 05:36:41;;;;;;;6.23;3.40;;;2.20;99.90;;;3.00;100.00;97522.22;4983835;28;20816;-75
2022/04/09 05:39:12;;;;;;;5.53;3.30;;;2.20;99.90;;;3.04;100.00;97526.13;4982869;28;20442;-75
2022/04/09 05:41:42;;;;;;;12.27;3.57;;;2.30;99.90;;;3.04;100.00;97535.66;4983085;28;21020;-75
2022/04/09 05:44:13;;;;;;;6.90;3.23;;;2.30;99.90;;;3.08;100.00;97541.31;4983499;28;20475;-75
2022/04/09 05:46:45;;;;;;;4.97;3.00;;;2.30;99.90;;;3.11;100.00;97554.75;4983691;28;20497;-75
2022/04/09 05:49:15;;;;;;;5.70;3.97;;;2.30;99.90;;;3.15;100.00;97558.63;4981842;28;21526;-75
2022/04/09 05:51:46;;;;;;;7.40;3.13;;;2.40;99.90;;;3.20;100.00;97555.56;4977089;28;20468;-75
2022/04/09 05:54:18;;;;;;;7.27;3.10;;;2.50;99.90;;;3.25;100.00;97564.50;4977634;28;20490;-75
2022/04/09 05:56:48;;;;;;;7.07;3.20;;;2.50;99.90;;;3.31;100.00;97556.13;4978375;28;21278;-75
2022/04/09 05:59:17;;;;;;;8.53;4.10;;;2.70;99.90;;;3.37;100.00;97567.63;4978643;28;21026;-74
2022/04/09 06:01:50;;;;;;;14.07;3.93;;;2.70;99.90;;;3.43;100.00;97560.09;4978402;28;20550;-75
2022/04/09 06:04:21;;;;;;;13.07;4.47;;;2.80;99.90;;;3.43;100.00;97565.25;4982067;28;20449;-75
2022/04/09 06:06:52;;;;;;;8.23;4.17;;;2.70;99.90;;;3.45;100.00;97571.06;4978359;28;20456;-75
2022/04/09 06:09:23;;;;;;;9.90;4.87;;;2.70;99.90;;;3.50;100.00;97576.59;4980228;28;20808;-75
2022/04/09 06:11:54;;;;;;;8.10;3.63;;;2.80;99.90;;;3.60;100.00;97578.25;4978900;28;20468;-76
2022/04/09 06:14:26;;;;;;;7.60;3.60;;;2.90;99.90;;;3.66;100.00;97582.78;4981697;28;20507;-74
2022/04/09 06:16:57;;;;;;;12.20;4.80;;;3.00;99.90;;;3.67;100.00;97592.16;4982343;28;20519;-75
2022/04/09 06:19:29;;;;;;;6.00;3.10;;;3.10;99.90;;;3.67;100.00;97584.41;4983020;28;20437;-75
2022/04/09 06:21:59;;;;;;;6.97;3.00;;;3.10;99.90;;;3.68;100.00;97586.81;4982473;28;20842;-74
2022/04/09 06:24:30;;;;;;;12.10;3.80;;;3.10;99.90;;;3.74;100.00;97601.75;4982387;28;20487;-75
2022/04/09 06:27:01;;;;;;;7.13;3.60;;;3.20;99.90;;;3.78;100.00;97597.06;4982997;28;20491;-75
2022/04/09 06:29:31;;;;;;;8.63;3.37;;;3.30;99.90;;;3.77;100.00;97609.19;4982958;28;20871;-75
2022/04/09 06:32:02;;;;;;;13.27;3.13;;;3.10;99.90;;;3.77;100.00;97614.34;4982304;28;22226;-75
2022/04/09 06:34:32;;;;;;;8.70;4.73;;;3.10;99.90;;;3.83;100.00;97612.91;4980857;28;21040;-75
2022/04/09 06:37:05;;;;;;;9.87;3.53;;;3.20;99.90;;;3.87;100.00;97616.81;4979305;28;20540;-75
2022/04/09 06:39:40;;;;;;;6.97;4.03;;;3.10;99.90;;;3.92;100.00;97624.94;4981649;28;20810;-74
2022/04/09 06:42:10;;;;;;;10.10;3.70;;;3.30;99.90;;;3.90;100.00;97626.84;4980544;28;20458;-75
2022/04/09 06:44:40;;;;;;;10.73;3.70;;;3.20;99.90;;;3.91;100.00;97623.31;4979969;28;20457;-75
2022/04/09 06:47:11;;;;;;;8.83;3.80;;;3.20;99.90;;;3.98;100.00;97634.66;4980450;28;20523;-75
2022/04/09 06:49:41;;;;;;;14.63;4.00;;;3.30;99.90;;;4.01;100.00;97639.50;4980208;28;20528;-75
2022/04/09 06:52:12;;;;;;;12.80;3.43;;;3.50;99.90;;;4.07;100.00;97642.28;4980290;28;20452;-75
2022/04/09 06:54:43;;;;;;;17.13;4.17;;;3.50;99.90;;;4.13;100.00;97651.16;4980543;28;20503;-75
2022/04/09 06:57:12;;;;;;;12.50;4.20;;;3.50;99.90;;;4.17;100.00;97643.91;4979383;28;20447;-75
2022/04/09 06:59:42;;;;;;;10.60;3.60;;;3.70;99.90;;;4.14;100.00;97651.97;4977813;28;20444;-74
2022/04/09 07:02:12;;;;;;;15.77;4.07;;;3.60;99.90;;;4.13;100.00;97651.16;4981878;28;20457;-74
2022/04/09 07:04:44;;;;;;;8.00;3.53;;;3.60;99.90;;;4.15;100.00;97656.19;4981216;28;20588;-75
2022/04/09 07:07:19;;;;;;;13.00;3.40;;;3.60;99.90;;;4.15;100.00;97654.44;4983684;28;20969;-74
2022/04/09 07:09:50;;;;;;;12.87;3.60;;;3.60;99.90;;;4.15;100.00;97651.84;4981063;28;20456;-75
2022/04/09 07:12:22;;;;;;;4.67;3.17;;;3.60;99.90;;;4.22;100.00;97647.66;4980899;28;20555;-75
2022/04/09 07:14:51;;;;;;;5.93;3.07;;;3.70;99.90;;;4.28;100.00;97662.56;4982653;28;20484;-75
2022/04/09 07:17:24;;;;;;;10.23;3.63;;;3.60;99.90;;;4.30;100.00;97665.81;4984852;28;20575;-75
2022/04/09 07:19:58;;;;;;;10.70;3.33;;;3.70;99.90;;;4.40;100.00;97673.44;4985508;28;20458;-75
2022/04/09 07:22:29;;;;;;;11.30;4.07;;;3.80;99.90;;;4.44;100.00;97672.16;4983182;28;20461;-75
2022/04/09 07:25:00;;;;;;;8.33;3.60;;;3.90;99.90;;;4.51;100.00;97686.88;4983840;28;20469;-75
2022/04/09 07:27:37;;;;;;;12.50;3.33;;;3.90;99.90;;;4.60;100.00;97686.91;4985664;28;20458;-75
2022/04/09 07:30:13;;;;;;;8.40;3.07;;;4.00;99.90;;;4.66;100.00;97696.63;4985858;28;20538;-75
2022/04/09 07:32:43;;;;;;;6.87;3.17;;;4.10;99.90;;;4.64;100.00;97698.56;4985808;28;20542;-75
2022/04/09 07:35:15;;;;;;;7.07;3.20;;;4.00;99.90;;;4.67;100.00;97699.06;4987649;28;20433;-75
2022/04/09 07:37:49;;;;;;;9.33;3.60;;;4.00;99.90;;;4.72;100.00;97706.38;4984208;28;20449;-76
2022/04/09 07:40:24;;;;;;;7.87;3.00;;;4.20;99.90;;;4.69;100.00;97702.28;4983790;28;20461;-75
2022/04/09 07:42:54;;;;;;;5.63;3.33;;;4.20;99.90;;;4.73;100.00;97702.78;4985789;28;20517;-75
2022/04/09 07:45:25;;;;;;;11.77;3.40;;;4.20;99.90;;;4.74;100.00;97709.59;4984108;28;20460;-75
2022/04/09 07:47:57;;;;;;;19.03;3.53;;;4.10;99.90;;;4.79;100.00;97707.34;4986941;28;21074;-75
2022/04/09 07:50:28;;;;;;;10.90;3.77;;;4.10;99.90;;;4.81;100.00;97710.59;4985803;28;20837;-75
2022/04/09 07:52:57;;;;;;;10.27;3.00;;;4.10;99.90;;;4.80;100.00;97714.94;4986306;28;20446;-75
2022/04/09 07:55:29;;;;;;;7.27;3.30;;;4.10;99.90;;;4.89;100.00;97715.78;4985872;28;20562;-76
2022/04/09 07:57:59;;;;;;;9.90;3.07;;;4.20;99.90;;;4.97;100.00;97715.78;4984645;28;20474;-75
2022/04/09 08:00:35;;;;;;;11.97;3.77;;;4.30;99.90;;;5.00;100.00;97716.28;4980303;28;20565;-76
2022/04/09 08:03:05;;;;;;;11.10;3.50;;;4.30;99.90;;;5.05;100.00;97716.63;4984914;28;20451;-75
2022/04/09 08:05:35;;;;;;;10.50;3.20;;;4.40;99.90;;;5.09;100.00;97724.88;4984217;28;20459;-75
2022/04/09 08:08:07;;;;;;;6.83;3.00;;;4.40;99.90;;;5.03;100.00;97722.94;4983491;28;20472;-75
2022/04/09 08:10:39;;;;;;;11.10;2.40;;;4.50;99.90;;;4.91;100.00;97721.59;4983631;28;20437;-75
2022/04/09 08:13:08;;;;;;;9.73;3.40;;;4.40;99.90;;;4.93;100.00;97720.47;4981045;28;20487;-75
2022/04/09 08:15:39;;;;;;;12.20;2.93;;;4.50;99.90;;;4.99;100.00;97711.28;4985112;28;20531;-75
2022/04/09 08:18:09;;;;;;;6.80;3.07;;;4.50;99.90;;;5.03;100.00;97712.56;4983292;28;20451;-76
2022/04/09 08:20:58;;;;;;;11.07;3.10;;;4.60;99.90;;;5.02;100.00;97718.72;4983965;28;20467;-75
2022/04/09 08:23:28;;;;;;;17.70;3.40;;;4.50;99.90;;;5.02;100.00;97724.72;4982064;28;20879;-75
2022/04/09 08:26:00;;;;;;;7.80;2.53;;;4.50;99.90;;;5.04;100.00;97719.34;4980466;28;20818;-75
2022/04/09 08:28:32;;;;;;;9.00;2.90;;;4.40;99.90;;;5.08;100.00;97729.25;4980758;28;20460;-75
2022/04/09 08:31:01;;;;;;;12.37;4.50;;;4.50;99.90;;;5.05;100.00;97718.41;4980832;28;20465;-75
2022/04/09 08:33:31;;;;;;;6.27;3.00;;;4.50;99.90;;;5.03;100.00;97720.34;4981936;28;20878;-75
2022/04/09 08:36:01;;;;;;;10.53;3.70;;;4.40;99.90;;;5.07;100.00;97726.81;4979166;28;20541;-76
2022/04/09 08:38:31;;;;;;;6.83;2.27;;;4.50;99.90;;;5.07;100.00;97729.41;4981538;28;20434;-75
2022/04/09 08:41:03;;;;;;;8.77;2.60;;;4.60;99.90;;;5.02;100.00;97729.91;4984191;28;20459;-75
2022/04/09 08:43:34;;;;;;;8.63;2.60;;;4.50;99.90;;;5.03;100.00;97738.50;4984007;28;20452;-75
2022/04/09 08:46:05;;;;;;;11.30;2.70;;;4.50;99.90;;;5.06;100.00;97731.19;4985023;28;20534;-75
2022/04/09 08:48:38;;;;;;;8.47;3.20;;;4.50;99.90;;;5.09;100.00;97737.84;4983014;28;20870;-75
2022/04/09 08:51:09;;;;;;;8.30;2.33;;;4.60;99.90;;;5.17;100.00;97739.63;4983826;28;20449;-76
2022/04/09 08:54:02;;;;;;;5.97;2.50;;;4.60;99.90;;;5.21;100.00;97744.31;4982834;28;20573;-75
2022/04/09 08:56:39;;;;;;;10.03;2.67;;;4.70;99.90;;;5.26;100.00;97747.25;4984812;28;20933;-75
2022/04/09 08:59:08;;;;;;;5.07;3.50;;;4.70;99.90;;;5.33;100.00;97737.03;4981547;28;20448;-75
2022/04/09 09:01:37;;;;;;;8.53;3.50;;;4.80;99.90;;;5.35;100.00;97738.50;4982082;28;20849;-75
2022/04/09 09:04:07;;;;;;;10.63;2.57;;;4.80;99.90;;;5.41;100.00;97740.47;4983007;28;20444;-75
2022/04/09 09:06:44;;;;;;;9.03;3.40;;;4.90;99.90;;;5.48;100.00;97749.19;4984853;28;20447;-75
2022/04/09 09:09:29;;;;;;;6.87;3.23;;;4.90;99.90;;;5.58;100.00;97744.66;4983750;28;20522;-76
2022/04/09 09:12:03;;;;;;;8.80;2.53;;;5.00;99.90;;;5.61;100.00;97742.72;4983072;28;20577;-76
2022/04/09 09:14:36;;;;;;;7.57;2.50;;;5.00;99.90;;;5.68;100.00;97752.28;4982837;28;20481;-76
2022/04/09 09:17:06;;;;;;;5.07;2.53;;;5.10;99.90;;;5.72;100.00;97750.97;4983749;28;20449;-75
2022/04/09 09:19:45;;;;;;;7.37;2.47;;;5.20;99.90;;;5.76;100.00;97754.06;4983258;28;20448;-75
2022/04/09 09:22:15;;;;;;;10.77;2.93;;;5.10;99.90;;;5.77;100.00;97758.25;4982109;28;20498;-75
2022/04/09 09:25:01;;;;;;;9.47;3.30;;;5.10;99.90;;;5.83;100.00;97749.84;4982724;28;20447;-75
2022/04/09 09:27:37;;;;;;;9.70;3.53;;;5.30;99.90;;;5.85;100.00;97750.47;4982966;28;20514;-75
2022/04/09 09:30:10;;;;;;;10.40;2.80;;;5.30;99.90;;;5.86;100.00;97754.72;4983225;28;20477;-75
2022/04/09 09:32:42;;;;;;;6.17;2.43;;;5.30;99.90;;;5.94;100.00;97746.91;4982757;28;21106;-75
2022/04/09 09:35:13;;;;;;;10.30;2.60;;;5.40;99.90;;;6.00;100.00;97756.66;4985204;28;20856;-76
2022/04/09 09:37:45;;;;;;;13.33;3.90;;;5.40;99.90;;;6.05;100.00;97754.34;4982563;28;21026;-75
2022/04/09 09:40:32;;;;;;;4.03;2.33;;;5.50;99.90;;;6.15;100.00;97764.53;4979212;28;20433;-75
2022/04/09 09:43:16;;;;;;;10.07;2.50;;;5.60;99.90;;;6.20;100.00;97754.47;4981647;28;20490;-75
2022/04/09 09:45:47;;;;;;;9.83;2.20;;;5.70;99.90;;;6.20;100.00;97749.28;4980854;28;20962;-75
2022/04/09 09:48:24;;;;;;;8.37;2.50;;;5.60;99.90;;;6.27;100.00;97763.22;4982804;28;20860;-75
2022/04/09 09:50:57;;;;;;;5.93;2.70;;;5.70;99.90;;;6.33;100.00;97755.56;4982625;28;20476;-76
2022/04/09 09:53:32;;;;;;;6.90;2.40;;;5.70;99.90;;;6.40;100.00;97766.91;4983581;28;20449;-75
2022/04/09 09:56:03;;;;;;;7.10;2.30;;;5.90;99.90;;;6.41;100.00;97758.16;4981283;28;21052;-75
2022/04/09 09:58:35;;;;;;;8.27;2.43;;;5.90;99.90;;;6.45;100.00;97761.22;4983436;28;21041;-75
2022/04/09 10:01:18;;;;;;;5.83;2.33;;;6.00;99.90;;;6.49;100.00;97773.69;4983743;28;20847;-75
2022/04/09 10:03:48;;;;;;;9.63;2.83;;;6.00;99.90;;;6.40;100.00;97773.88;4981866;28;20445;-75
2022/04/09 10:06:19;;;;;;;10.40;2.90;;;6.00;99.90;;;6.43;100.00;97773.53;4982096;28;20527;-75
2022/04/09 10:08:48;;;;;;;6.83;3.07;;;6.00;99.90;;;6.43;100.00;97769.16;4981903;28;20452;-75
2022/04/09 10:11:19;;;;;;;7.13;2.33;;;6.00;99.90;;;6.35;100.00;97769.19;4981810;28;20514;-75
2022/04/09 10:13:54;;;;;;;5.33;2.40;;;5.70;99.90;;;6.37;100.00;97769.84;4979783;28;20456;-76
2022/04/09 10:16:27;;;;;;;17.97;2.77;;;5.90;99.90;;;6.32;100.00;97769.53;4978855;28;20513;-75
2022/04/09 10:19:00;;;;;;;6.07;2.27;;;5.70;99.90;;;6.37;100.00;97769.03;4978748;28;20459;-75
2022/04/09 10:21:33;;;;;;;8.70;3.03;;;5.90;99.90;;;6.41;100.00;97781.53;4978702;28;20447;-76
2022/04/09 10:24:12;;;;;;;5.53;2.30;;;5.80;99.90;;;6.38;100.00;97779.25;4980941;28;20449;-76
2022/04/09 10:26:42;;;;;;;10.07;3.00;;;5.80;99.90;;;6.38;100.00;97779.25;4982467;28;20478;-75
2022/04/09 10:29:13;;;;;;;14.33;3.37;;;5.90;99.90;;;6.42;100.00;97782.34;4982740;28;20954;-76
2022/04/09 10:31:51;;;;;;;10.40;2.23;;;5.80;99.90;;;6.48;100.00;97777.28;4982394;28;20443;-75
2022/04/09 10:34:20;;;;;;;6.70;2.20;;;6.00;99.90;;;6.53;100.00;97777.56;4982555;28;20456;-75
2022/04/09 10:37:08;;;;;;;7.27;2.00;;;6.00;99.90;;;6.59;100.00;97781.31;4982710;28;21500;-75
2022/04/09 10:39:45;;;;;;;7.20;2.57;;;6.10;99.90;;;6.64;100.00;97772.97;4983002;28;20955;-75
2022/04/09 10:42:52;;;;;;;9.80;2.20;;;6.10;99.90;;;6.74;100.00;97765.78;4981895;28;20936;-75
2022/04/09 10:45:23;;;;;;;7.13;2.27;;;6.30;99.90;;;6.79;100.00;97771.31;4980500;28;20544;-75